Flight Track Log - Related Links

Times and Time Zones

All times are in EST time to prevent confusion due to time zone crossing. See the SKW7367 flight status page for this flight to view local times or setup timezone preferences in your user account.

Time Position Orientation Groundspeed Altitude Reporting Facility
EST Latitude Longitude Course Direction KTS MPH feet Rate Location/Type
Thu 12:05:20 PM 42.2117 -83.3481 North 139 160 1,200  Level Cleveland Center
Thu 12:06:09 PM 42.1839 -83.3836 223° Southwest 184 212 3,600 3,600 Climbing Cleveland Center
Thu 12:07:10 PM 42.1644 -83.4431 246° West 191 220 7,800 3,844 Climbing Cleveland Center
Thu 12:07:13 PM 42.1639 -83.4381 99° East 183 211 7,700 1,938 Descending Cleveland Center
Thu 12:08:00 PM 42.4986 -83.3732 North  Level Estimated
Thu 12:08:15 PM 42.1778 -83.5144 284° West 210 242 9,900  Level Cleveland Center
Thu 12:08:16 PM 42.1789 -83.5267 277° West 254 292 9,900 2,164 Level Cleveland Center
Thu 12:09:00 PM 42.5939 -83.3654 North  Level FlightAware Approximate
Thu 12:09:16 PM 42.2244 -83.5794 319° Northwest 265 305 12,100  Level Cleveland Center
Thu 12:10:00 PM 42.6893 -83.3726 North  Level Estimated
Thu 12:10:18 PM 42.3075 -83.5597 10° North 307 353 13,400  Level Cleveland Center
Thu 12:11:20 PM 42.3964 -83.5328 13° North 322 371 15,000 787 Climbing Cleveland Center
Thu 12:12:20 PM 42.4833 -83.5333 360° North 328 377 15,000  Level Cleveland Center
Thu 12:13:22 PM 42.5883 -83.5336 360° North 317 365 15,000  Level Cleveland Center
Thu 12:14:23 PM 42.6725 -83.5347 359° North 306 352 15,000  Level Cleveland Center
Thu 12:15:24 PM 42.7608 -83.5353 360° North 316 364 15,000  Level Cleveland Center
Thu 12:16:26 PM 42.8519 -83.5361 360° North 325 374 15,000  Level Cleveland Center
Thu 12:17:27 PM 42.9439 -83.5367 360° North 331 381 15,000  Level Cleveland Center
Thu 12:18:29 PM 43.0367 -83.5378 359° North 333 383 15,000  Level Cleveland Center
Thu 12:19:30 PM 43.1306 -83.5381 360° North 337 388 15,000  Level Cleveland Center
Thu 12:20:31 PM 43.2228 -83.5389 360° North 333 383 15,000  Level Cleveland Center
Thu 12:21:33 PM 43.3375 -83.5414 359° North 343 395 15,000  Level Cleveland Center
Thu 12:22:34 PM 43.4314 -83.5400 North 339 390 15,000  Level Cleveland Center
Thu 12:23:36 PM 43.5253 -83.5408 360° North 338 389 15,000  Level Cleveland Center
Thu 12:24:37 PM 43.6158 -83.5419 359° North 329 379 15,000  Level Cleveland Center
Thu 12:25:39 PM 43.7039 -83.5428 360° North 319 367 15,000  Level Cleveland Center
Thu 12:26:40 PM 43.7864 -83.5419 360° North 304 350 15,000  Level Cleveland Center
Thu 12:27:42 PM 43.8625 -83.5444 359° North 281 323 15,000  Level Cleveland Center
Thu 12:28:43 PM 43.9417 -83.5439 360° North 282 325 15,000  Level Cleveland Center
Thu 12:29:45 PM 44.0392 -83.5450 360° North 290 334 15,000  Level Cleveland Center
Thu 12:30:46 PM 44.1211 -83.5447 360° North 294 338 15,000  Level Cleveland Center
Thu 12:31:48 PM 44.2044 -83.5464 359° North 297 342 15,000  Level Cleveland Center
Thu 12:32:49 PM 44.2878 -83.5486 359° North 300 345 15,000  Level Cleveland Center
Thu 12:33:51 PM 44.3753 -83.5500 359° North 300 345 15,000  Level Cleveland Center
Thu 12:34:52 PM 44.4586 -83.5508 360° North 300 345 15,000 -98 Level Cleveland Center
Thu 12:35:54 PM 44.5433 -83.5522 359° North 302 348 14,800 -1,374 Descending Cleveland Center
Thu 12:37:03 PM 44.6500 -83.5528 360° North 304 350 12,000 -2,077 Descending Minneapolis Center
Thu 12:38:04 PM 44.7297 -83.5539 359° North 292 336 10,300 -1,951 Descending Minneapolis Center
Thu 12:39:06 PM 44.8103 -83.5547 360° North 274 315 8,000 -2,195 Descending Minneapolis Center
Thu 12:40:07 PM 44.8808 -83.5553 360° North 262 302 5,800 -1,967 Descending Minneapolis Center
Thu 12:41:08 PM 44.9503 -83.5519 North 257 296 4,000 -1,131 Descending Minneapolis Center
Thu 12:42:09 PM 45.0228 -83.5175 19° North 258 297 3,500 -390 Descending Minneapolis Center
Thu 12:43:11 PM 45.0883 -83.4867 18° North 256 295 3,200 -488 Descending Minneapolis Center
Thu 12:44:12 PM 45.1464 -83.4950 354° North 208 239 2,500 -541 Descending Minneapolis Center
Thu 12:45:13 PM 45.1497 -83.5564 274° West 167 192 2,100 -634 Descending Minneapolis Center
Thu 12:46:15 PM 45.1119 -83.5614 185° South 134 154 1,200 -683 Descending Minneapolis Center
Thu 12:47:16 PM 45.0828 -83.5611 180° South 127 146 700 -492 Descending Minneapolis Center

Login

Don't have an account? Register now (free) for customized features, flight alerts, and more!